Time;durP1;ratioP1;P1;durP2;ratioP2;P2;SDS_P1;SDS_P2;PMS_P1;PMS_P2;Temp;Humidity;BMP_temperature;BMP_pressure;BME280_temperature;BME280_humidity;BME280_pressure;Samples;Min_cycle;Max_cycle;Signal;HPM_P1;HPM_P2
2023/01/23 00:00:41;;;;;;;26.85;14.93;;;;;;;5.36;74.57;101535.56;4903498;29;20047;-76
2023/01/23 00:03:15;;;;;;;20.13;13.18;;;;;;;5.31;75.40;101548.09;4885507;29;20142;-76
2023/01/23 00:05:57;;;;;;;22.27;13.38;;;;;;;4.93;75.32;101483.38;4872376;28;20051;-78
2023/01/23 00:08:48;;;;;;;24.27;13.27;;;;;;;4.87;76.14;101470.50;4901478;28;20046;-79
2023/01/23 00:11:31;;;;;;;21.63;14.07;;;;;;;5.32;75.47;101524.34;4874384;29;20346;-77
2023/01/23 00:14:05;;;;;;;23.45;14.40;;;;;;;5.30;76.02;101528.84;4886197;29;20051;-79
2023/01/23 00:16:35;;;;;;;21.15;13.68;;;;;;;4.45;75.77;101390.25;4907908;28;20218;-78
2023/01/23 00:19:15;;;;;;;28.48;14.23;;;;;;;5.08;76.75;101491.41;4902931;29;20055;-77
2023/01/23 00:21:45;;;;;;;22.48;13.20;;;;;;;5.36;75.84;101519.75;4902313;28;20075;-78
2023/01/23 00:24:11;;;;;;;26.48;15.65;;;;;;;5.10;75.85;101476.38;4887538;29;20047;-76
2023/01/23 00:26:39;;;;;;;25.08;14.57;;;;;;;4.85;75.89;101435.53;4883142;29;20051;-78
2023/01/23 00:29:06;;;;;;;24.25;13.98;;;;;;;5.35;75.34;101505.75;4911181;28;20074;-77
2023/01/23 00:31:35;;;;;;;22.63;14.35;;;;;;;5.31;75.69;101501.56;4873940;29;20265;-78
2023/01/23 00:34:06;;;;;;;27.15;14.55;;;;;;;4.87;76.50;101457.34;4887761;29;20452;-78
2023/01/23 00:36:38;;;;;;;24.20;14.40;;;;;;;4.15;75.49;101313.78;4904954;29;20645;-77
2023/01/23 00:39:17;;;;;;;20.30;12.95;;;;;;;4.82;75.57;101424.31;4904562;29;20354;-77
2023/01/23 00:41:49;;;;;;;22.00;13.63;;;;;;;5.16;75.43;101481.31;4853431;29;20444;-78
2023/01/23 00:44:24;;;;;;;20.80;13.65;;;;;;;5.05;75.44;101468.72;4895994;29;20061;-78
2023/01/23 00:47:07;;;;;;;26.48;14.95;;;;;;;5.13;75.58;101500.75;4893445;29;20415;-78
2023/01/23 00:49:40;;;;;;;27.27;15.02;;;;;;;5.04;75.75;101492.47;4892773;28;20085;-78
2023/01/23 00:52:07;;;;;;;25.42;13.88;;;;;;;5.00;75.87;101491.81;4909723;28;20094;-79
2023/01/23 00:54:33;;;;;;;20.83;13.55;;;;;;;5.17;75.37;101517.25;4922314;28;20063;-78
2023/01/23 00:57:00;;;;;;;20.55;13.65;;;;;;;5.10;75.02;101513.22;4908076;28;20656;-75
2023/01/23 00:59:48;;;;;;;25.58;14.02;;;;;;;5.03;75.67;101512.69;4912296;28;20047;-78
2023/01/23 01:02:16;;;;;;;20.20;13.32;;;;;;;5.04;75.84;101519.66;4927537;28;20051;-78
2023/01/23 01:04:43;;;;;;;29.73;13.30;;;;;;;5.07;75.62;101531.78;4902927;28;20056;-76
2023/01/23 01:07:16;;;;;;;29.40;13.10;;;;;;;5.06;75.35;101524.84;4931054;28;20114;-77
2023/01/23 01:09:43;;;;;;;19.80;13.40;;;;;;;5.07;74.96;101531.78;4898842;29;20544;-77
2023/01/23 01:12:18;;;;;;;22.00;13.32;;;;;;;4.76;75.38;101478.13;4900659;28;20106;-78
2023/01/23 01:14:50;;;;;;;23.88;14.55;;;;;;;4.90;75.15;101507.22;4906179;29;20051;-79
2023/01/23 01:17:23;;;;;;;24.05;13.88;;;;;;;4.95;75.08;101499.06;4911603;28;20043;-77
2023/01/23 01:20:02;;;;;;;24.38;13.35;;;;;;;4.89;75.52;101505.50;4902324;29;20056;-78
2023/01/23 01:22:39;;;;;;;26.33;13.82;;;;;;;4.51;75.56;101431.13;4893879;29;20091;-79
2023/01/23 01:25:11;;;;;;;19.55;13.15;;;;;;;4.82;75.82;101490.94;4879369;29;20506;-77
2023/01/23 01:27:40;;;;;;;23.58;12.88;;;;;;;4.48;74.68;101424.25;4888735;29;20052;-79
2023/01/23 01:30:08;;;;;;;23.25;13.98;;;;;;;4.87;75.05;101485.44;4913402;29;20039;-77
2023/01/23 01:32:44;;;;;;;27.88;12.40;;;;;;;4.97;74.80;101512.16;4864197;29;20060;-79
2023/01/23 01:35:16;;;;;;;21.33;13.85;;;;;;;4.78;75.40;101486.78;4901524;29;20051;-78
2023/01/23 01:37:51;;;;;;;22.88;13.32;;;;;;;4.87;75.08;101512.59;4895445;29;20476;-79
2023/01/23 01:40:24;;;;;;;21.27;12.43;;;;;;;4.32;74.96;101402.31;4930121;28;20107;-79
2023/01/23 01:43:25;;;;;;;23.17;13.93;;;;;;;4.93;74.95;101485.16;4929889;28;20063;-79
2023/01/23 01:46:10;;;;;;;20.48;11.65;;;;;;;4.90;74.44;101469.50;4909338;29;20453;-77
2023/01/23 01:48:46;;;;;;;18.52;11.77;;;;;;;4.48;74.75;101426.88;4892716;29;20083;-79
2023/01/23 01:51:34;;;;;;;25.52;12.20;;;;;;;4.71;74.83;101466.97;4901207;29;20432;-78
2023/01/23 01:54:31;;;;;;;17.88;11.25;;;;;;;4.88;74.51;101466.13;4901302;29;20062;-79
2023/01/23 01:57:30;;;;;;;21.33;11.80;;;;;;;4.89;73.70;101454.66;4868965;28;20259;-79
2023/01/23 02:00:07;;;;;;;20.58;12.35;;;;;;;4.92;73.52;101468.47;4907057;28;20353;-78
2023/01/23 02:02:57;;;;;;;16.45;10.80;;;;;;;4.54;73.09;101406.47;4894711;28;20047;-79
2023/01/23 02:05:46;;;;;;;18.42;11.02;;;;;;;4.85;73.44;101467.09;4902872;28;20089;-78
2023/01/23 02:08:37;;;;;;;18.20;10.73;;;;;;;4.77;73.67;101469.28;4928852;28;20125;-76
2023/01/23 02:11:07;;;;;;;19.90;12.02;;;;;;;4.87;73.58;101462.59;4905301;29;20320;-77
2023/01/23 02:13:38;;;;;;;16.48;11.45;;;;;;;4.65;74.19;101427.81;4891520;29;20157;-77
2023/01/23 02:16:38;;;;;;;16.27;11.02;;;;;;;4.97;74.12;101459.50;4858832;29;20163;-80
2023/01/23 02:19:46;;;;;;;23.15;12.95;;;;;;;4.82;73.57;101421.69;4856040;29;20059;-77
2023/01/23 02:22:25;;;;;;;18.10;11.80;;;;;;;5.02;73.54;101442.53;4882505;28;20142;-77
2023/01/23 02:25:42;;;;;;;21.70;12.20;;;;;;;4.91;73.95;101443.13;4873224;29;20059;-76
2023/01/23 02:28:10;;;;;;;18.05;12.02;;;;;;;4.88;74.10;101434.53;4906227;29;20864;-77
2023/01/23 02:30:41;;;;;;;18.75;11.98;;;;;;;4.95;74.02;101430.63;4908505;29;20462;-78
2023/01/23 02:33:23;;;;;;;19.95;11.68;;;;;;;4.94;73.16;101415.78;4867691;28;20617;-78
2023/01/23 02:35:50;;;;;;;20.58;12.25;;;;;;;4.91;73.84;101423.84;4899223;28;20298;-77
2023/01/23 02:38:21;;;;;;;22.15;12.50;;;;;;;4.69;74.12;101384.66;4898081;28;20075;-78
2023/01/23 02:40:48;;;;;;;18.10;12.38;;;;;;;4.56;73.82;101359.91;4906327;28;20071;-78
2023/01/23 02:43:21;;;;;;;22.98;13.00;;;;;;;4.66;73.87;101383.03;4901703;29;20054;-80
2023/01/23 02:46:02;;;;;;;17.27;11.95;;;;;;;4.78;74.67;101413.13;4909334;28;20054;-80
2023/01/23 02:48:36;;;;;;;20.33;12.68;;;;;;;4.53;75.21;101375.84;4909100;29;20051;-78
2023/01/23 02:51:06;;;;;;;22.67;14.35;;;;;;;4.84;74.20;101390.91;4894480;29;20051;-78
2023/01/23 02:53:41;;;;;;;18.52;12.80;;;;;;;4.92;74.33;101400.06;4896500;29;20259;-79
2023/01/23 02:56:17;;;;;;;22.70;12.85;;;;;;;4.87;73.86;101386.31;4912558;29;20139;-79
2023/01/23 03:01:34;;;;;;;18.90;13.55;;;;;;;4.88;74.51;101398.56;4925635;29;20043;-80
2023/01/23 03:04:09;;;;;;;24.13;13.48;;;;;;;4.74;74.63;101364.22;4908770;29;20047;-80
2023/01/23 03:06:36;;;;;;;23.23;14.25;;;;;;;4.50;74.13;101319.00;4908147;29;20513;-79
2023/01/23 03:09:06;;;;;;;21.17;14.73;;;;;;;4.83;73.63;101358.47;4909470;28;20310;-78
2023/01/23 03:11:34;;;;;;;20.10;13.38;;;;;;;4.89;74.08;101386.25;4909085;28;20052;-80
2023/01/23 03:14:01;;;;;;;18.63;13.65;;;;;;;4.83;74.53;101374.28;4906307;28;20062;-80
2023/01/23 03:16:31;;;;;;;22.27;14.27;;;;;;;4.86;75.31;101389.88;4907871;29;20305;-78
2023/01/23 03:19:10;;;;;;;17.15;13.23;;;;;;;4.79;75.20;101377.97;4899538;29;20043;-80
2023/01/23 03:21:49;;;;;;;17.40;14.02;;;;;;;4.80;75.44;101395.44;4918347;29;20497;-78
2023/01/23 03:24:16;;;;;;;19.08;13.98;;;;;;;4.71;75.80;101385.44;4909702;28;20051;-78
2023/01/23 03:26:47;;;;;;;22.35;13.82;;;;;;;4.75;75.61;101381.69;4899910;29;20493;-81
2023/01/23 03:32:05;;;;;;;25.00;14.75;;;;;;;4.71;75.16;101377.53;4913739;28;20409;-81
2023/01/23 03:34:33;;;;;;;23.02;14.20;;;;;;;4.97;75.54;101427.94;4906729;28;20416;-79
2023/01/23 03:37:14;;;;;;;18.42;13.00;;;;;;;4.83;75.53;101421.63;4911490;28;20483;-80
2023/01/23 03:42:33;;;;;;;19.20;12.85;;;;;;;4.70;76.89;101415.28;4896788;29;20107;-81
2023/01/23 03:45:01;;;;;;;22.45;12.60;;;;;;;4.44;78.43;101382.41;4881238;29;20143;-80
2023/01/23 03:47:28;;;;;;;19.77;12.48;;;;;;;4.66;77.18;101413.72;4910601;28;20115;-82
2023/01/23 03:50:06;;;;;;;16.95;12.18;;;;;;;4.61;76.01;101399.97;4857674;29;20394;-83
2023/01/23 03:52:53;;;;;;;17.65;12.50;;;;;;;4.67;76.25;101390.00;4860400;29;20149;-82
2023/01/23 03:55:20;;;;;;;22.02;12.23;;;;;;;4.59;77.08;101392.16;4846156;29;20067;-80
2023/01/23 03:57:52;;;;;;;16.40;12.13;;;;;;;4.77;77.16;101411.41;4852839;29;20055;-80
2023/01/23 04:00:26;;;;;;;15.38;11.98;;;;;;;4.92;76.07;101404.50;4852611;29;20102;-81
2023/01/23 04:03:01;;;;;;;15.35;11.75;;;;;;;5.00;75.78;101398.81;4861672;29;20056;-83
2023/01/23 04:05:28;;;;;;;16.67;12.13;;;;;;;4.22;77.09;101303.78;4867376;29;20376;-81
2023/01/23 04:08:01;;;;;;;18.77;13.18;;;;;;;4.71;76.30;101383.66;4889205;29;20297;-80
2023/01/23 04:10:28;;;;;;;16.48;12.73;;;;;;;4.78;77.03;101392.06;4878311;29;20281;-82
2023/01/23 04:12:55;;;;;;;17.65;12.88;;;;;;;4.20;77.32;101295.13;4879735;29;20076;-80
2023/01/23 04:15:25;;;;;;;17.85;11.07;;;;;;;4.54;77.26;101345.97;4886839;29;20681;-83
2023/01/23 04:20:56;;;;;;;16.50;11.65;;;;;;;4.58;77.50;101343.13;4874298;29;20204;-81
2023/01/23 04:24:07;;;;;;;16.60;11.95;;;;;;;4.65;77.92;101362.06;4903963;29;20051;-81
2023/01/23 04:26:40;;;;;;;17.38;12.07;;;;;;;4.56;78.25;101339.72;4857962;29;20044;-83
2023/01/23 04:29:15;;;;;;;14.60;10.85;;;;;;;4.37;78.16;101313.53;4873363;28;20066;-82
2023/01/23 04:32:00;;;;;;;17.58;12.25;;;;;;;4.38;79.85;101333.63;4838742;29;20182;-81
2023/01/23 04:34:34;;;;;;;15.50;11.38;;;;;;;4.47;79.99;101335.78;4852298;29;20055;-79
2023/01/23 04:37:06;;;;;;;17.17;12.20;;;;;;;4.50;79.78;101334.78;4876928;29;20078;-83
2023/01/23 04:39:38;;;;;;;21.80;12.65;;;;;;;4.48;80.42;101326.97;4866757;29;20424;-78
2023/01/23 04:42:14;;;;;;;20.00;13.35;;;;;;;4.32;79.96;101270.88;4866371;28;20137;-84
2023/01/23 04:44:51;;;;;;;16.70;11.45;;;;;;;4.46;79.86;101307.78;4860906;29;20411;-80
2023/01/23 04:47:17;;;;;;;17.45;12.40;;;;;;;4.54;80.13;101311.78;4880446;29;20044;-78
2023/01/23 04:49:46;;;;;;;18.40;12.63;;;;;;;4.47;80.66;101292.88;4826527;29;20149;-82
2023/01/23 04:52:16;;;;;;;18.10;12.95;;;;;;;4.65;80.32;101327.88;4851066;29;20135;-83
2023/01/23 04:54:59;;;;;;;19.13;13.40;;;;;;;4.41;80.30;101286.16;4845383;29;20386;-82
2023/01/23 04:57:29;;;;;;;19.67;12.90;;;;;;;4.56;80.35;101317.84;4854678;29;20048;-81
2023/01/23 05:00:03;;;;;;;21.38;13.00;;;;;;;4.56;80.67;101313.41;4842521;29;20052;-84
2023/01/23 05:02:54;;;;;;;16.20;13.23;;;;;;;4.06;80.83;101236.28;4887960;28;20256;-81
2023/01/23 05:05:43;;;;;;;20.52;13.07;;;;;;;4.47;80.11;101283.22;4876131;29;20052;-82
2023/01/23 05:08:18;;;;;;;19.35;12.77;;;;;;;4.42;80.46;101295.75;4855416;29;20524;-82
2023/01/23 05:10:49;;;;;;;17.75;13.07;;;;;;;4.58;79.78;101308.94;4889794;28;20359;-81
2023/01/23 05:13:18;;;;;;;18.98;13.45;;;;;;;4.05;79.88;101239.84;4852131;29;20561;-79
2023/01/23 05:15:54;;;;;;;18.73;13.53;;;;;;;4.17;80.13;101276.91;4855980;29;20055;-83
2023/01/23 05:18:31;;;;;;;19.42;13.13;;;;;;;4.11;79.57;101264.09;4843903;29;20167;-82
2023/01/23 05:21:04;;;;;;;18.13;13.50;;;;;;;4.05;80.22;101275.75;4837094;29;20055;-78
2023/01/23 05:23:41;;;;;;;18.50;13.20;;;;;;;3.88;80.61;101257.38;4874812;29;20048;-81
2023/01/23 05:26:42;;;;;;;19.33;14.23;;;;;;;3.91;80.18;101242.31;4858336;29;20378;-81
2023/01/23 05:29:19;;;;;;;22.07;13.80;;;;;;;3.50;80.28;101210.25;4875587;29;20091;-82
2023/01/23 05:31:58;;;;;;;18.27;13.77;;;;;;;3.73;80.34;101246.69;4859267;29;20052;-81
2023/01/23 05:34:28;;;;;;;23.07;14.97;;;;;;;3.32;80.49;101197.09;4851768;29;20099;-82
2023/01/23 05:36:55;;;;;;;21.70;14.20;;;;;;;3.26;81.10;101207.91;4857534;29;20060;-80
2023/01/23 05:39:24;;;;;;;20.93;14.80;;;;;;;3.58;80.56;101265.84;4872493;29;20051;-82
2023/01/23 05:41:51;;;;;;;20.03;14.23;;;;;;;3.59;80.45;101272.78;4887325;29;20710;-79
2023/01/23 05:44:23;;;;;;;22.03;14.40;;;;;;;3.50;80.95;101263.59;4919065;28;20075;-82
2023/01/23 05:46:50;;;;;;;21.80;13.70;;;;;;;3.32;80.93;101259.25;4886379;29;20422;-82
2023/01/23 05:50:12;;;;;;;20.47;14.07;;;;;;;3.32;80.66;101261.84;4907768;29;20111;-82
2023/01/23 05:52:43;;;;;;;21.83;14.80;;;;;;;3.34;81.21;101279.22;4880234;29;20854;-82
2023/01/23 05:55:10;;;;;;;24.37;14.00;;;;;;;3.11;81.66;101256.72;4919663;29;20362;-80
2023/01/23 05:57:48;;;;;;;24.57;15.10;;;;;;;2.73;81.90;101217.41;4890204;29;20074;-82
2023/01/23 06:00:17;;;;;;;23.83;15.40;;;;;;;2.99;82.59;101309.78;4895223;29;20052;-81
2023/01/23 06:02:46;;;;;;;23.83;15.20;;;;;;;2.85;82.88;101281.53;4896378;29;20063;-80
2023/01/23 06:05:16;;;;;;;23.80;15.77;;;;;;;3.07;83.44;101331.25;4894637;29;20062;-80
2023/01/23 06:07:43;;;;;;;23.37;14.33;;;;;;;3.22;83.39;101317.41;4886670;29;20051;-80
2023/01/23 06:10:09;;;;;;;26.30;15.37;;;;;;;3.25;81.65;101305.06;4896738;29;20079;-81
2023/01/23 06:12:46;;;;;;;24.95;15.30;;;;;;;3.27;81.90;101313.72;4895218;29;20420;-82
2023/01/23 06:15:13;;;;;;;23.30;14.55;;;;;;;3.25;82.00;101320.81;4899088;29;20052;-80
2023/01/23 06:17:44;;;;;;;20.50;13.43;;;;;;;3.14;81.51;101282.81;4875409;29;20414;-81
2023/01/23 06:20:13;;;;;;;23.13;15.10;;;;;;;3.10;82.00;101317.97;4875672;29;20244;-80
2023/01/23 06:22:43;;;;;;;21.43;14.80;;;;;;;3.10;82.70;101322.38;4869679;29;20250;-81
2023/01/23 06:25:30;;;;;;;21.00;15.00;;;;;;;3.16;81.82;101304.59;4888839;29;20059;-82
2023/01/23 06:27:58;;;;;;;24.47;16.27;;;;;;;3.19;81.29;101309.69;4880128;29;20075;-79
2023/01/23 06:30:25;;;;;;;22.00;16.10;;;;;;;3.12;81.44;101307.41;4895404;29;20369;-79
2023/01/23 06:33:01;;;;;;;21.77;15.47;;;;;;;2.72;81.49;101249.78;4878851;29;20532;-78
2023/01/23 06:35:27;;;;;;;22.77;15.03;;;;;;;2.78;82.15;101278.34;4903852;29;20134;-81
2023/01/23 06:37:59;;;;;;;20.63;14.73;;;;;;;2.86;82.21;101292.88;4890606;29;20275;-80
2023/01/23 06:40:28;;;;;;;22.92;14.90;;;;;;;2.50;82.61;101238.56;4913874;28;20294;-79
2023/01/23 06:42:58;;;;;;;23.90;15.73;;;;;;;2.84;82.46;101287.72;4880193;29;20055;-80
2023/01/23 06:45:25;;;;;;;19.27;13.77;;;;;;;2.84;81.62;101279.84;4912078;29;20713;-82
2023/01/23 06:47:52;;;;;;;26.97;16.23;;;;;;;2.57;81.68;101213.78;4871946;29;20458;-81
2023/01/23 06:50:29;;;;;;;20.67;14.20;;;;;;;2.69;82.60;101255.16;4880756;29;20506;-82
2023/01/23 06:52:58;;;;;;;21.90;15.00;;;;;;;2.66;82.17;101260.53;4900466;28;20044;-83
2023/01/23 06:55:27;;;;;;;24.63;14.27;;;;;;;2.39;82.30;101219.88;4894841;29;20048;-83
2023/01/23 06:57:57;;;;;;;19.50;14.50;;;;;;;2.54;81.60;101240.97;4900707;29;20502;-82
2023/01/23 07:00:26;;;;;;;22.13;14.77;;;;;;;2.19;81.70;101203.25;4900616;29;20402;-82
2023/01/23 07:02:57;;;;;;;29.00;16.97;;;;;;;2.19;81.94;101208.50;4884897;29;20548;-81
2023/01/23 07:05:30;;;;;;;22.37;15.73;;;;;;;1.59;82.14;101123.84;4882445;29;20589;-79
2023/01/23 07:08:02;;;;;;;19.73;13.27;;;;;;;2.58;81.76;101257.44;4877999;29;20055;-81
2023/01/23 07:10:31;;;;;;;22.13;15.20;;;;;;;2.61;81.56;101269.56;4882570;29;20055;-80
2023/01/23 07:13:01;;;;;;;21.57;13.60;;;;;;;2.14;81.92;101200.00;4896694;29;20059;-80
2023/01/23 07:15:31;;;;;;;21.67;15.27;;;;;;;2.32;83.05;101262.06;4877607;29;20110;-81
2023/01/23 07:18:08;;;;;;;20.07;14.13;;;;;;;2.14;82.47;101213.09;4883317;29;20069;-82
2023/01/23 07:20:35;;;;;;;22.77;14.67;;;;;;;2.05;82.27;101195.16;4884213;29;20064;-82
2023/01/23 07:23:02;;;;;;;22.83;15.10;;;;;;;2.33;83.00;101253.28;4890147;29;20145;-82
2023/01/23 07:25:33;;;;;;;24.57;14.67;;;;;;;2.36;82.95;101252.31;4862829;29;20055;-84
2023/01/23 07:28:02;;;;;;;20.03;14.03;;;;;;;2.19;82.91;101213.75;4884184;29;20048;-84
2023/01/23 07:30:43;;;;;;;19.13;14.00;;;;;;;2.38;82.56;101250.47;4896115;29;20056;-85
2023/01/23 07:33:19;;;;;;;23.13;13.63;;;;;;;2.56;82.29;101252.25;4883355;29;20379;-86
2023/01/23 07:35:52;;;;;;;23.30;14.97;;;;;;;2.40;82.09;101229.41;4900086;29;20472;-87
2023/01/23 07:38:22;;;;;;;22.27;14.27;;;;;;;1.17;82.61;101034.06;4878151;29;20843;-84
2023/01/23 07:40:57;;;;;;;18.63;13.73;;;;;;;2.13;83.05;101224.47;4891516;29;20255;-84
2023/01/23 07:43:27;;;;;;;20.23;13.57;;;;;;;1.61;83.01;101140.34;4883611;29;20044;-87
2023/01/23 07:46:08;;;;;;;18.63;13.80;;;;;;;1.90;82.78;101173.97;4876423;29;20058;-87
2023/01/23 07:48:36;;;;;;;20.27;15.27;;;;;;;1.86;83.09;101175.00;4871248;29;20385;-85
2023/01/23 07:51:04;;;;;;;20.80;14.73;;;;;;;2.47;83.53;101259.66;4879809;29;20965;-85
2023/01/23 07:53:39;;;;;;;26.40;15.13;;;;;;;1.18;83.05;101042.75;4877796;29;20055;-84
2023/01/23 07:56:16;;;;;;;21.13;15.27;;;;;;;1.85;83.87;101183.78;4873608;29;20142;-85
2023/01/23 07:58:50;;;;;;;22.33;15.20;;;;;;;0.90;84.04;101043.06;4848637;29;20511;-84
2023/01/23 08:01:23;;;;;;;17.53;13.53;;;;;;;1.45;84.56;101120.03;4867094;29;20063;-85
2023/01/23 08:04:02;;;;;;;21.37;15.00;;;;;;;2.46;85.13;101284.19;4884709;29;20091;-84
2023/01/23 08:06:41;;;;;;;18.17;13.27;;;;;;;2.66;83.36;101271.03;4886110;29;20044;-82
2023/01/23 08:09:09;;;;;;;18.00;13.20;;;;;;;2.26;83.43;101238.75;4875936;29;20224;-82
2023/01/23 08:11:36;;;;;;;19.73;14.03;;;;;;;2.40;83.05;101242.53;4908787;29;20067;-83
2023/01/23 08:14:03;;;;;;;20.63;15.07;;;;;;;2.18;82.71;101217.25;4874361;29;20470;-82
2023/01/23 08:16:30;;;;;;;20.67;15.17;;;;;;;1.64;82.88;101116.66;4884889;29;20514;-84
2023/01/23 08:19:11;;;;;;;21.07;15.63;;;;;;;2.62;82.88;101279.97;4881079;29;20199;-82
2023/01/23 08:21:41;;;;;;;19.53;14.60;;;;;;;2.53;83.20;101281.22;4872346;29;20447;-82
2023/01/23 08:24:28;;;;;;;24.10;16.37;;;;;;;2.51;83.54;101288.31;4879499;29;20052;-84
2023/01/23 08:27:06;;;;;;;21.43;15.90;;;;;;;2.61;82.98;101293.97;4886160;29;20051;-81
2023/01/23 08:29:35;;;;;;;20.67;15.03;;;;;;;2.17;83.33;101231.28;4887051;29;20123;-82
2023/01/23 08:32:03;;;;;;;26.03;15.60;;;;;;;2.55;83.62;101295.13;4874978;29;20062;-81
2023/01/23 08:34:30;;;;;;;23.30;14.90;;;;;;;1.94;84.64;101182.53;4875255;29;20245;-83
2023/01/23 08:36:59;;;;;;;20.40;15.07;;;;;;;1.66;84.25;101139.22;4892280;29;20044;-83
2023/01/23 08:39:40;;;;;;;22.70;16.67;;;;;;;1.94;84.94;101195.63;4888612;29;20060;-81
2023/01/23 08:42:12;;;;;;;22.20;16.00;;;;;;;1.94;85.06;101177.28;4875011;29;20078;-83
2023/01/23 08:44:42;;;;;;;22.00;16.37;;;;;;;1.32;84.49;101063.94;4879448;29;20292;-80
2023/01/23 08:47:11;;;;;;;18.83;15.43;;;;;;;2.54;85.04;101267.19;4871499;29;20066;-79
2023/01/23 08:49:43;;;;;;;20.37;15.03;;;;;;;1.27;84.44;101056.28;4898884;29;20070;-80
2023/01/23 08:52:11;;;;;;;19.67;14.80;;;;;;;2.63;85.20;101265.09;4896815;29;20178;-79
2023/01/23 08:54:39;;;;;;;21.87;15.60;;;;;;;2.64;84.82;101261.53;4885618;29;20733;-80
2023/01/23 08:57:20;;;;;;;20.03;15.80;;;;;;;2.30;84.80;101208.84;4889863;29;20098;-79
2023/01/23 08:59:47;;;;;;;21.83;15.10;;;;;;;2.68;84.51;101279.69;4895523;29;20043;-79
2023/01/23 09:02:13;;;;;;;22.10;15.73;;;;;;;2.59;85.06;101269.59;4887349;29;20058;-78
2023/01/23 09:04:50;;;;;;;20.60;14.63;;;;;;;2.52;84.82;101268.19;4882329;29;20055;-78
2023/01/23 09:07:25;;;;;;;28.00;15.27;;;;;;;2.64;85.47;101272.88;4877117;29;20048;-79
2023/01/23 09:10:01;;;;;;;23.80;15.27;;;;;;;1.82;85.44;101134.19;4879449;29;20338;-78
2023/01/23 09:12:27;;;;;;;25.70;14.90;;;;;;;2.42;85.75;101235.44;4889454;29;20286;-77
2023/01/23 09:14:58;;;;;;;20.47;14.73;;;;;;;2.64;86.40;101296.47;4890741;29;20040;-79
2023/01/23 09:17:26;;;;;;;21.55;14.77;;;;;;;2.45;86.02;101240.53;4891577;29;20502;-79
2023/01/23 09:19:52;;;;;;;20.73;15.23;;;;;;;2.03;85.48;101147.22;4896800;29;20154;-79
2023/01/23 09:22:22;;;;;;;23.07;15.07;;;;;;;2.58;85.85;101233.84;4909016;29;20067;-80
2023/01/23 09:24:50;;;;;;;22.73;14.33;;;;;;;2.66;85.78;101213.34;4892230;29;20507;-79
2023/01/23 09:27:28;;;;;;;21.40;14.50;;;;;;;2.63;86.11;101208.25;4891626;29;20048;-77
2023/01/23 09:30:06;;;;;;;18.93;14.60;;;;;;;2.95;85.78;101227.72;4906170;29;20056;-81
2023/01/23 09:32:33;;;;;;;22.87;14.30;;;;;;;3.07;85.54;101236.78;4905143;29;20052;-80
2023/01/23 09:35:00;;;;;;;21.40;14.23;;;;;;;2.83;85.77;101198.63;4899009;29;20483;-81
2023/01/23 09:37:58;;;;;;;19.03;14.47;;;;;;;2.99;85.90;101231.06;4900935;29;20066;-78
2023/01/23 09:40:30;;;;;;;24.20;15.67;;;;;;;2.72;86.28;101184.25;4912959;29;20134;-77
2023/01/23 09:43:27;;;;;;;21.50;14.90;;;;;;;3.16;85.59;101239.00;4911950;29;20082;-80
2023/01/23 09:46:09;;;;;;;23.00;15.50;;;;;;;2.88;86.14;101180.88;4863887;29;20126;-79
2023/01/23 09:49:07;;;;;;;22.83;15.30;;;;;;;3.20;85.14;101214.31;4890102;29;20048;-78
2023/01/23 09:52:11;;;;;;;24.90;15.27;;;;;;;2.59;84.28;101096.59;4918764;29;20055;-77
2023/01/23 09:54:56;;;;;;;21.20;14.30;;;;;;;3.38;83.77;101202.06;4914223;29;20448;-81
2023/01/23 09:58:04;;;;;;;18.43;14.03;;;;;;;3.33;83.93;101192.72;4925933;28;20320;-77
2023/01/23 10:00:41;;;;;;;17.33;13.73;;;;;;;3.28;84.10;101205.22;4890128;29;20563;-78
2023/01/23 10:03:14;;;;;;;18.20;13.80;;;;;;;3.48;83.50;101206.84;4923323;28;20070;-78
2023/01/23 10:06:06;;;;;;;20.07;13.27;;;;;;;3.38;83.96;101201.22;4905727;29;20051;-78
2023/01/23 10:08:54;;;;;;;21.63;14.53;;;;;;;2.84;84.30;101122.50;4914395;29;20083;-77
2023/01/23 10:11:46;;;;;;;17.73;12.93;;;;;;;2.75;84.69;101129.03;4917212;29;20165;-80
2023/01/23 10:14:39;;;;;;;18.65;12.90;;;;;;;3.22;85.01;101196.69;4907221;29;20055;-78
2023/01/23 10:17:35;;;;;;;19.23;13.47;;;;;;;3.22;84.58;101180.94;4904459;29;20067;-78
2023/01/23 10:20:31;;;;;;;17.07;13.07;;;;;;;3.06;84.62;101163.41;4911033;29;20470;-77
2023/01/23 10:23:24;;;;;;;18.17;13.93;;;;;;;2.85;85.32;101121.56;4887990;29;20059;-80
2023/01/23 10:25:52;;;;;;;21.33;14.97;;;;;;;3.17;85.02;101172.47;4894759;29;20054;-79
2023/01/23 10:28:25;;;;;;;22.80;14.97;;;;;;;2.75;84.77;101092.31;4892832;29;20438;-80
2023/01/23 10:31:04;;;;;;;19.50;14.47;;;;;;;3.21;85.14;101174.03;4887933;29;20150;-81
2023/01/23 10:34:06;;;;;;;18.60;15.07;;;;;;;3.27;84.53;101172.00;4918260;28;20147;-79
2023/01/23 10:36:53;;;;;;;19.25;14.07;;;;;;;3.20;85.43;101172.34;4888390;29;20289;-80
2023/01/23 10:40:00;;;;;;;19.50;14.47;;;;;;;3.19;85.14;101162.75;4901882;29;20056;-80
2023/01/23 10:42:28;;;;;;;21.53;15.83;;;;;;;2.97;84.84;101128.00;4897827;29;20235;-81
2023/01/23 10:45:16;;;;;;;19.93;15.40;;;;;;;2.65;84.65;101071.88;4902862;29;20750;-80
2023/01/23 10:47:47;;;;;;;20.83;15.60;;;;;;;2.94;84.83;101122.91;4902199;29;20055;-80
2023/01/23 10:50:39;;;;;;;19.90;15.10;;;;;;;3.09;85.73;101158.03;4898884;29;20418;-81
2023/01/23 10:53:23;;;;;;;23.53;16.37;;;;;;;2.77;85.80;101093.09;4892832;29;20044;-79
2023/01/23 10:56:02;;;;;;;20.00;15.43;;;;;;;3.05;85.53;101146.81;4913936;28;20205;-80
2023/01/23 10:58:41;;;;;;;19.23;15.00;;;;;;;3.11;85.93;101157.03;4895728;29;20139;-79
2023/01/23 11:01:38;;;;;;;23.40;17.03;;;;;;;3.01;85.72;101145.28;4906958;29;20150;-77
2023/01/23 11:04:22;;;;;;;22.60;16.10;;;;;;;2.84;85.88;101119.00;4867239;29;20087;-80
2023/01/23 11:07:07;;;;;;;21.97;16.70;;;;;;;3.07;86.18;101150.22;4899745;29;20047;-81
2023/01/23 11:09:56;;;;;;;22.70;15.93;;;;;;;2.95;86.81;101124.59;4908967;29;20659;-81
2023/01/23 11:12:30;;;;;;;25.80;16.17;;;;;;;3.12;86.47;101148.22;4894885;29;20078;-83
2023/01/23 11:15:27;;;;;;;21.17;16.00;;;;;;;3.10;87.39;101143.97;4894650;29;20158;-81
2023/01/23 11:17:56;;;;;;;21.77;17.20;;;;;;;3.00;87.11;101107.69;4892831;29;20381;-78
2023/01/23 11:20:23;;;;;;;26.80;17.23;;;;;;;3.28;86.80;101127.34;4891680;29;20430;-78
2023/01/23 11:23:15;;;;;;;20.80;16.33;;;;;;;3.30;87.39;101119.38;4870792;29;20055;-83
2023/01/23 11:25:55;;;;;;;21.95;17.30;;;;;;;3.29;87.16;101122.94;4902563;29;20146;-81
2023/01/23 11:28:46;;;;;;;27.77;18.57;;;;;;;3.19;87.67;101107.66;4899013;29;20142;-81
2023/01/23 11:31:36;;;;;;;23.77;17.10;;;;;;;3.34;87.54;101128.78;4890933;29;20074;-81
2023/01/23 11:34:41;;;;;;;26.40;17.37;;;;;;;3.24;86.91;101101.31;4901877;29;20490;-81
2023/01/23 11:37:25;;;;;;;26.23;17.33;;;;;;;2.86;87.62;101043.75;4905040;29;20059;-79
2023/01/23 11:40:15;;;;;;;25.43;17.93;;;;;;;3.42;86.59;101131.88;4903261;29;20111;-79
2023/01/23 11:42:45;;;;;;;23.77;19.37;;;;;;;3.39;86.78;101108.41;4901774;29;20075;-83
2023/01/23 11:45:53;;;;;;;23.83;18.67;;;;;;;3.09;87.72;101089.81;4906657;29;20417;-81
2023/01/23 11:48:53;;;;;;;26.77;19.10;;;;;;;3.37;88.20;101150.50;4893702;29;20043;-79
2023/01/23 11:52:07;;;;;;;26.63;19.40;;;;;;;3.42;88.42;101155.50;4884043;29;20043;-82
2023/01/23 11:55:11;;;;;;;22.03;16.63;;;;;;;3.48;88.73;101154.34;4783092;29;20110;-78
2023/01/23 11:58:16;;;;;;;28.70;19.07;;;;;;;3.62;88.63;101163.22;4883252;29;20052;-81
2023/01/23 12:01:00;;;;;;;27.30;17.90;;;;;;;3.61;88.10;101161.50;4897739;29;20075;-80
2023/01/23 12:03:59;;;;;;;23.70;18.30;;;;;;;3.68;88.30;101137.59;4905933;28;20122;-81
2023/01/23 12:06:47;;;;;;;23.20;16.40;;;;;;;3.85;88.12;101121.78;4883507;29;20127;-77
2023/01/23 12:09:17;;;;;;;25.77;17.00;;;;;;;3.75;87.22;101099.56;4884931;29;20944;-80
2023/01/23 12:12:11;;;;;;;26.47;17.63;;;;;;;3.79;88.29;101111.63;4882720;29;20043;-77